Time;durP1;ratioP1;P1;durP2;ratioP2;P2;SDS_P1;SDS_P2;PMS_P1;PMS_P2;Temp;Humidity;BMP_temperature;BMP_pressure;BME280_temperature;BME280_humidity;BME280_pressure;Samples;Min_cycle;Max_cycle;Signal;HPM_P1;HPM_P2
2022/08/03 00:02:26;;;;;;;;;;;;;;;18.87;46.16;101097.25;7395442;19;19935;-68
2022/08/03 00:04:54;;;;;;;;;;;;;;;18.83;47.09;101094.81;7394875;19;19939;-68
2022/08/03 00:07:22;;;;;;;;;;;;;;;18.78;47.16;101096.84;7395836;19;19926;-68
2022/08/03 00:09:50;;;;;;;;;;;;;;;18.73;46.82;101091.78;7395257;19;19982;-68
2022/08/03 00:12:21;;;;;;;;;;;;;;;18.69;46.77;101083.13;7396536;19;19974;-67
2022/08/03 00:14:49;;;;;;;;;;;;;;;18.65;47.06;101088.66;7395585;19;20325;-68
2022/08/03 00:17:17;;;;;;;;;;;;;;;18.61;47.25;101085.28;7395284;19;19922;-68
2022/08/03 00:19:45;;;;;;;;;;;;;;;18.55;47.49;101078.50;7396576;19;19915;-68
2022/08/03 00:22:14;;;;;;;;;;;;;;;18.51;47.71;101076.94;7396735;19;19936;-68
2022/08/03 00:24:42;;;;;;;;;;;;;;;18.48;47.45;101082.38;7395153;19;19918;-68
2022/08/03 00:27:10;;;;;;;;;;;;;;;18.44;47.76;101083.47;7395464;19;19939;-68
2022/08/03 00:29:41;;;;;;;;;;;;;;;18.40;47.25;101074.78;7394401;19;19926;-68
2022/08/03 00:32:09;;;;;;;;;;;;;;;18.35;47.62;101076.81;7396365;19;19926;-68
2022/08/03 00:34:37;;;;;;;;;;;;;;;18.33;48.01;101081.34;7396200;19;19919;-68
2022/08/03 00:37:06;;;;;;;;;;;;;;;18.28;47.60;101075.38;7394391;19;19998;-68
2022/08/03 00:39:34;;;;;;;;;;;;;;;18.24;47.41;101082.63;7396030;19;19935;-69
2022/08/03 00:42:03;;;;;;;;;;;;;;;18.20;48.01;101074.91;7396068;19;19985;-67
2022/08/03 00:44:31;;;;;;;;;;;;;;;18.17;47.96;101080.38;7395522;19;20339;-67
2022/08/03 00:47:02;;;;;;;;;;;;;;;18.11;48.20;101070.03;7394045;19;19943;-68
2022/08/03 00:49:30;;;;;;;;;;;;;;;18.07;48.39;101078.16;7394074;19;19983;-68
2022/08/03 00:51:59;;;;;;;;;;;;;;;18.03;48.83;101075.72;7393964;19;19923;-68
2022/08/03 00:54:27;;;;;;;;;;;;;;;17.99;48.64;101074.16;7393405;19;19915;-68
2022/08/03 00:56:55;;;;;;;;;;;;;;;17.94;48.86;101071.69;7394666;19;19943;-68
2022/08/03 00:59:24;;;;;;;;;;;;;;;17.88;48.56;101070.19;7395165;19;19915;-68
2022/08/03 01:01:52;;;;;;;;;;;;;;;17.84;49.34;101065.94;7393728;19;19932;-68
2022/08/03 01:04:23;;;;;;;;;;;;;;;17.81;49.51;101062.59;7395044;19;20264;-68
2022/08/03 01:06:54;;;;;;;;;;;;;;;17.78;49.03;101060.06;7394239;19;19935;-67
2022/08/03 01:09:32;;;;;;;;;;;;;;;17.74;49.23;101064.66;7392971;19;19942;-68
2022/08/03 01:12:04;;;;;;;;;;;;;;;17.70;49.16;101066.56;7401996;19;19928;-68
2022/08/03 01:14:35;;;;;;;;;;;;;;;17.67;50.08;101057.94;7403589;19;19927;-67
2022/08/03 01:17:06;;;;;;;;;;;;;;;17.64;49.92;101055.41;7400064;19;19922;-68
2022/08/03 01:19:51;;;;;;;;;;;;;;;17.60;50.06;101062.63;7402253;19;19936;-68
2022/08/03 01:22:38;;;;;;;;;;;;;;;17.55;50.04;101057.56;7402768;19;19922;-68
2022/08/03 01:25:26;;;;;;;;;;;;;;;17.51;49.94;101052.47;7398914;19;20323;-68
2022/08/03 01:27:59;;;;;;;;;;;;;;;17.46;50.75;101049.16;7399846;19;20031;-68
2022/08/03 01:30:31;;;;;;;;;;;;;;;17.41;50.31;101042.28;7402425;19;19978;-68
2022/08/03 01:33:01;;;;;;;;;;;;;;;17.38;50.29;101042.41;7399136;19;19918;-68
2022/08/03 01:35:33;;;;;;;;;;;;;;;17.36;50.74;101040.75;7402558;19;19927;-68
2022/08/03 01:38:04;;;;;;;;;;;;;;;17.34;50.95;101034.66;7399507;19;20008;-68
2022/08/03 01:40:34;;;;;;;;;;;;;;;17.31;50.27;101040.09;7401538;19;20401;-68
2022/08/03 01:43:04;;;;;;;;;;;;;;;17.27;51.04;101031.41;7402437;19;19992;-68
2022/08/03 01:45:35;;;;;;;;;;;;;;;17.24;50.81;101035.06;7401696;19;19978;-68
2022/08/03 01:48:05;;;;;;;;;;;;;;;17.20;50.69;101030.84;7398535;19;20342;-68
2022/08/03 01:50:33;;;;;;;;;;;;;;;17.19;50.43;101030.94;7401128;19;20272;-68
2022/08/03 01:53:02;;;;;;;;;;;;;;;17.16;50.79;101031.91;7401063;19;19922;-67
2022/08/03 01:55:32;;;;;;;;;;;;;;;17.14;50.69;101025.81;7400991;19;20342;-66
2022/08/03 01:58:01;;;;;;;;;;;;;;;17.09;50.52;101025.16;7398752;19;19989;-69
2022/08/03 02:00:29;;;;;;;;;;;;;;;17.07;50.77;101030.53;7400936;19;19915;-68
2022/08/03 02:03:00;;;;;;;;;;;;;;;17.04;50.78;101025.34;7401355;19;19939;-68
2022/08/03 02:05:29;;;;;;;;;;;;;;;17.03;50.55;101022.78;7401405;19;19932;-67
2022/08/03 02:07:58;;;;;;;;;;;;;;;17.01;50.94;101028.16;7398211;19;19930;-68
2022/08/03 02:10:27;;;;;;;;;;;;;;;16.99;50.94;101022.06;7398061;19;19926;-68
2022/08/03 02:12:56;;;;;;;;;;;;;;;16.99;50.47;101029.16;7400468;19;19930;-68
2022/08/03 02:15:25;;;;;;;;;;;;;;;16.96;51.02;101030.16;7400478;19;19915;-68
2022/08/03 02:17:55;;;;;;;;;;;;;;;16.96;50.64;101031.91;7398234;19;19918;-68
2022/08/03 02:20:26;;;;;;;;;;;;;;;16.94;50.67;101026.69;7400429;19;19939;-69
2022/08/03 02:22:55;;;;;;;;;;;;;;;16.93;50.91;101024.97;7399055;19;19922;-69
2022/08/03 02:25:36;;;;;;;;;;;;;;;16.92;50.85;101024.13;7398617;19;19915;-67
2022/08/03 02:28:08;;;;;;;;;;;;;;;16.91;50.84;101026.84;7398039;19;19939;-68
2022/08/03 02:30:38;;;;;;;;;;;;;;;16.89;51.10;101034.81;7398229;19;19926;-67
2022/08/03 02:33:07;;;;;;;;;;;;;;;16.89;51.03;101033.97;7399744;19;19911;-68
2022/08/03 02:35:38;;;;;;;;;;;;;;;16.88;50.95;101032.22;7399413;19;19931;-67
2022/08/03 02:38:09;;;;;;;;;;;;;;;16.87;51.05;101039.34;7397972;19;19983;-69
2022/08/03 02:40:38;;;;;;;;;;;;;;;16.87;51.43;101030.50;7399590;19;20341;-68
2022/08/03 02:43:09;;;;;;;;;;;;;;;16.85;51.38;101027.94;7399638;19;19982;-68
2022/08/03 02:45:38;;;;;;;;;;;;;;;16.84;51.27;101026.19;7400062;19;19926;-68
2022/08/03 02:48:07;;;;;;;;;;;;;;;16.84;51.56;101028.00;7397378;19;19978;-68
2022/08/03 02:50:38;;;;;;;;;;;;;;;16.83;51.50;101028.94;7397205;19;19915;-68
2022/08/03 02:53:07;;;;;;;;;;;;;;;16.81;51.22;101029.00;7397913;19;19951;-68
2022/08/03 02:55:36;;;;;;;;;;;;;;;16.82;52.09;101032.50;7399450;19;19929;-68
2022/08/03 02:58:06;;;;;;;;;;;;;;;16.80;52.41;101023.78;7397054;19;19939;-68
2022/08/03 03:00:34;;;;;;;;;;;;;;;16.80;51.67;101029.91;7399124;19;19923;-68
2022/08/03 03:03:04;;;;;;;;;;;;;;;16.80;51.92;101027.28;7399218;19;19929;-68
2022/08/03 03:05:32;;;;;;;;;;;;;;;16.82;51.93;101027.19;7399066;19;19936;-67
2022/08/03 03:08:03;;;;;;;;;;;;;;;16.81;52.08;101026.34;7397068;19;19922;-68
2022/08/03 03:10:32;;;;;;;;;;;;;;;16.82;52.02;101024.53;7397097;19;19935;-68
2022/08/03 03:13:00;;;;;;;;;;;;;;;16.81;51.72;101029.00;7398893;19;19939;-68
2022/08/03 03:15:30;;;;;;;;;;;;;;;16.81;51.87;101025.47;7398323;19;20278;-67
2022/08/03 03:17:58;;;;;;;;;;;;;;;16.82;51.93;101024.53;7396748;19;19933;-68
2022/08/03 03:20:27;;;;;;;;;;;;;;;16.82;51.38;101033.38;7398056;19;19963;-68
2022/08/03 03:22:56;;;;;;;;;;;;;;;16.83;51.64;101031.56;7398458;19;19931;-67
2022/08/03 03:25:27;;;;;;;;;;;;;;;16.84;51.76;101030.66;7396533;19;20248;-68
2022/08/03 03:27:55;;;;;;;;;;;;;;;16.85;52.93;101029.72;7396427;19;19922;-67
2022/08/03 03:30:23;;;;;;;;;;;;;;;16.86;51.60;101028.81;7395745;19;20342;-68
2022/08/03 03:32:52;;;;;;;;;;;;;;;16.87;51.67;101030.50;7397586;19;19936;-68
2022/08/03 03:35:20;;;;;;;;;;;;;;;16.89;51.20;101028.66;7397892;19;19978;-68
2022/08/03 03:37:48;;;;;;;;;;;;;;;16.89;51.43;101023.34;7395807;19;20255;-68
2022/08/03 03:40:16;;;;;;;;;;;;;;;16.90;51.14;101020.63;7397178;19;19938;-68
2022/08/03 03:42:47;;;;;;;;;;;;;;;16.92;51.15;101028.53;7397075;19;19986;-68
2022/08/03 03:45:16;;;;;;;;;;;;;;;16.92;51.06;101033.84;7397844;19;19945;-68
2022/08/03 03:47:44;;;;;;;;;;;;;;;16.93;51.10;101030.28;7395585;19;19982;-68
2022/08/03 03:50:12;;;;;;;;;;;;;;;16.93;51.18;101030.28;7394911;19;20338;-68
2022/08/03 03:52:41;;;;;;;;;;;;;;;16.93;51.42;101023.19;7395377;19;19919;-68
2022/08/03 03:55:09;;;;;;;;;;;;;;;16.92;51.65;101024.13;7397049;19;19931;-68
2022/08/03 03:57:37;;;;;;;;;;;;;;;16.92;51.82;101023.25;7395312;19;19931;-68
2022/08/03 04:00:09;;;;;;;;;;;;;;;16.90;51.87;101028.59;7395306;19;19926;-68
2022/08/03 04:02:38;;;;;;;;;;;;;;;16.89;51.28;101023.34;7396833;19;19915;-68
2022/08/03 04:13:17;;;;;;;;;;;;;;;16.83;52.02;101036.88;7396856;19;19933;-68
2022/08/03 04:15:49;;;;;;;;;;;;;;;16.82;51.52;101032.50;7395155;19;20086;-69
2022/08/03 04:18:17;;;;;;;;;;;;;;;16.81;51.60;101034.28;7396310;19;20342;-69
2022/08/03 04:20:47;;;;;;;;;;;;;;;16.78;51.53;101030.00;7396920;19;19931;-69
2022/08/03 04:23:15;;;;;;;;;;;;;;;16.78;51.67;101039.72;7396630;19;19974;-69
2022/08/03 04:25:50;;;;;;;;;;;;;;;16.78;51.53;101037.94;7394072;19;20012;-69
2022/08/03 04:28:19;;;;;;;;;;;;;;;16.78;51.73;101039.72;7396710;19;19922;-73
2022/08/03 04:30:51;;;;;;;;;;;;;;;16.78;51.71;101051.19;7395062;19;19914;-69
2022/08/03 04:33:20;;;;;;;;;;;;;;;16.78;51.71;101045.88;7393601;19;20347;-68
2022/08/03 04:35:49;;;;;;;;;;;;;;;16.81;51.98;101051.97;7395705;19;19930;-69
2022/08/03 04:38:20;;;;;;;;;;;;;;;16.81;51.61;101054.63;7394291;19;19926;-69
2022/08/03 04:40:49;;;;;;;;;;;;;;;16.83;51.81;101050.13;7394209;19;19935;-69
2022/08/03 04:43:20;;;;;;;;;;;;;;;16.86;51.87;101060.59;7396268;19;20007;-69
2022/08/03 04:45:51;;;;;;;;;;;;;;;16.88;51.78;101062.25;7393350;19;19936;-69
2022/08/03 04:48:20;;;;;;;;;;;;;;;16.90;51.58;101062.19;7395406;19;19978;-69
2022/08/03 04:50:49;;;;;;;;;;;;;;;16.92;51.58;101057.69;7394828;19;19982;-70
2022/08/03 04:53:18;;;;;;;;;;;;;;;16.96;51.68;101061.97;7396890;19;19949;-69
2022/08/03 04:55:46;;;;;;;;;;;;;;;16.98;51.41;101060.09;7394079;19;19922;-68
2022/08/03 04:58:14;;;;;;;;;;;;;;;17.03;51.63;101051.94;7393290;19;19982;-68
2022/08/03 05:00:44;;;;;;;;;;;;;;;17.06;51.90;101062.41;7393621;19;19999;-69
2022/08/03 05:03:15;;;;;;;;;;;;;;;17.10;51.81;101056.06;7393069;19;19922;-68
2022/08/03 05:05:43;;;;;;;;;;;;;;;17.16;51.92;101057.56;7395318;19;19923;-68
2022/08/03 05:08:11;;;;;;;;;;;;;;;17.20;51.66;101049.41;7394826;19;19922;-68
2022/08/03 05:10:39;;;;;;;;;;;;;;;17.26;51.40;101057.09;7393413;19;20408;-68
2022/08/03 05:13:10;;;;;;;;;;;;;;;17.32;51.60;101055.09;7395115;19;20003;-68
2022/08/03 05:15:39;;;;;;;;;;;;;;;17.38;51.37;101055.66;7393707;19;19930;-68
2022/08/03 05:18:07;;;;;;;;;;;;;;;17.43;51.76;101053.66;7392911;19;19914;-68
2022/08/03 05:20:38;;;;;;;;;;;;;;;17.51;51.23;101052.47;7394563;19;19935;-68
2022/08/03 05:23:06;;;;;;;;;;;;;;;17.58;51.29;101053.91;7394847;19;19929;-68
2022/08/03 05:25:34;;;;;;;;;;;;;;;17.65;51.52;101052.66;7393430;19;19915;-69
2022/08/03 05:28:02;;;;;;;;;;;;;;;17.71;51.55;101049.72;7392472;19;20236;-68
2022/08/03 05:30:31;;;;;;;;;;;;;;;17.82;50.90;101056.31;7393235;19;19922;-68
2022/08/03 05:32:59;;;;;;;;;;;;;;;17.90;51.29;101048.88;7393936;19;19939;-70
2022/08/03 05:35:27;;;;;;;;;;;;;;;17.98;50.96;101051.19;7393342;19;20352;-67
2022/08/03 05:37:58;;;;;;;;;;;;;;;18.07;50.87;101056.03;7392471;19;19978;-67
2022/08/03 05:40:26;;;;;;;;;;;;;;;18.15;50.46;101058.34;7393967;19;19929;-67
2022/08/03 05:42:54;;;;;;;;;;;;;;;18.22;50.62;101054.44;7391643;19;19947;-67
2022/08/03 05:45:22;;;;;;;;;;;;;;;18.30;50.52;101056.72;7394212;19;19923;-67
2022/08/03 05:47:51;;;;;;;;;;;;;;;18.36;50.64;101057.28;7392366;19;19927;-67
2022/08/03 05:50:19;;;;;;;;;;;;;;;18.44;50.25;101054.25;7391855;19;19927;-67
2022/08/03 05:52:48;;;;;;;;;;;;;;;18.52;50.23;101056.53;7393528;19;20335;-67
2022/08/03 05:55:18;;;;;;;;;;;;;;;18.59;50.23;101060.59;7394007;19;19926;-68
2022/08/03 05:57:48;;;;;;;;;;;;;;;18.67;50.30;101063.72;7396942;19;20460;-67
2022/08/03 06:00:17;;;;;;;;;;;;;;;18.74;50.37;101058.97;7400731;19;19923;-67
2022/08/03 06:02:45;;;;;;;;;;;;;;;18.82;50.43;101056.75;7400538;19;19998;-67
2022/08/03 06:05:13;;;;;;;;;;;;;;;18.92;51.20;101065.16;7397605;19;19940;-68
2022/08/03 06:07:41;;;;;;;;;;;;;;;19.00;50.41;101062.09;7397847;19;19919;-67
2022/08/03 06:10:10;;;;;;;;;;;;;;;19.10;50.25;101068.66;7397323;19;19922;-67
2022/08/03 06:12:40;;;;;;;;;;;;;;;19.19;50.55;101054.84;7396906;19;20324;-67
2022/08/03 06:15:09;;;;;;;;;;;;;;;19.27;50.12;101059.78;7400804;19;19918;-67
2022/08/03 06:17:45;;;;;;;;;;;;;;;19.36;50.07;101058.41;7398066;19;19982;-67
2022/08/03 06:20:14;;;;;;;;;;;;;;;19.48;50.25;101062.22;7396896;19;20338;-67
2022/08/03 06:22:42;;;;;;;;;;;;;;;19.58;50.14;101059.94;7399204;19;19918;-67
2022/08/03 06:25:11;;;;;;;;;;;;;;;19.67;50.41;101054.09;7398263;19;20311;-68
2022/08/03 06:27:41;;;;;;;;;;;;;;;19.75;49.70;101048.34;7397510;19;19979;-68
2022/08/03 06:30:12;;;;;;;;;;;;;;;19.86;49.66;101053.97;7397580;19;19923;-67
2022/08/03 06:32:40;;;;;;;;;;;;;;;19.96;49.47;101056.97;7399872;19;19923;-68
2022/08/03 06:35:09;;;;;;;;;;;;;;;20.07;49.80;101048.38;7399688;19;19927;-69
2022/08/03 06:37:43;;;;;;;;;;;;;;;20.17;49.30;101058.41;7397491;19;19919;-70
2022/08/03 06:40:13;;;;;;;;;;;;;;;20.29;49.92;101056.00;7400557;19;19914;-69
2022/08/03 06:42:44;;;;;;;;;;;;;;;20.42;49.29;101057.00;7396995;19;19953;-70
2022/08/03 06:45:13;;;;;;;;;;;;;;;20.54;48.89;101055.41;7397037;19;19940;-70
2022/08/03 06:47:41;;;;;;;;;;;;;;;20.66;48.88;101065.38;7396971;19;19939;-71
2022/08/03 06:50:10;;;;;;;;;;;;;;;20.78;48.43;101066.47;7398727;19;19975;-70
2022/08/03 06:52:39;;;;;;;;;;;;;;;20.90;48.74;101064.91;7398574;19;19927;-70
2022/08/03 06:55:07;;;;;;;;;;;;;;;21.04;48.19;101063.19;7396642;19;19923;-70
2022/08/03 06:57:36;;;;;;;;;;;;;;;21.17;48.21;101053.50;7396659;19;20338;-70
2022/08/03 07:00:08;;;;;;;;;;;;;;;21.29;48.33;101052.72;7398726;19;20351;-72
2022/08/03 07:02:36;;;;;;;;;;;;;;;21.44;47.78;101052.72;7399214;19;20290;-68
2022/08/03 07:05:04;;;;;;;;;;;;;;;21.55;47.63;101055.59;7398526;19;19921;-69
2022/08/03 07:07:33;;;;;;;;;;;;;;;21.69;47.81;101051.22;7396519;19;19932;-69
2022/08/03 07:10:01;;;;;;;;;;;;;;;21.83;47.53;101051.16;7395850;19;19949;-70
2022/08/03 07:12:30;;;;;;;;;;;;;;;21.94;47.51;101054.00;7396169;19;19943;-70
2022/08/03 07:14:59;;;;;;;;;;;;;;;22.08;47.40;101049.59;7396979;19;19930;-71
2022/08/03 07:17:30;;;;;;;;;;;;;;;22.21;47.69;101053.16;7396158;19;19926;-71
2022/08/03 07:19:58;;;;;;;;;;;;;;;22.34;47.36;101050.50;7396122;19;20008;-70
2022/08/03 07:22:27;;;;;;;;;;;;;;;22.49;47.46;101046.00;7398108;19;19923;-70
2022/08/03 07:24:55;;;;;;;;;;;;;;;22.65;46.80;101047.66;7397695;19;20278;-70
2022/08/03 07:27:25;;;;;;;;;;;;;;;22.79;46.51;101047.56;7395407;19;19927;-70
2022/08/03 07:29:53;;;;;;;;;;;;;;;22.99;45.93;101051.53;7398159;19;19919;-71
2022/08/03 07:32:22;;;;;;;;;;;;;;;23.16;45.53;101049.53;7398482;19;20288;-70
2022/08/03 07:34:52;;;;;;;;;;;;;;;23.33;45.38;101053.66;7397226;19;19923;-70
2022/08/03 07:37:21;;;;;;;;;;;;;;;23.48;45.60;101052.59;7395438;19;19937;-68
2022/08/03 07:39:49;;;;;;;;;;;;;;;23.61;44.95;101047.22;7395812;19;19922;-68
2022/08/03 07:42:17;;;;;;;;;;;;;;;23.71;44.95;101048.25;7397479;19;19987;-68
2022/08/03 07:44:45;;;;;;;;;;;;;;;23.84;44.84;101053.56;7395314;19;19935;-68
2022/08/03 07:47:13;;;;;;;;;;;;;;;23.96;44.48;101051.00;7395687;19;19928;-68
2022/08/03 07:49:42;;;;;;;;;;;;;;;24.06;44.48;101052.88;7395339;19;19914;-68
2022/08/03 07:54:54;;;;;;;;;;;;;;;24.31;44.36;101052.88;7397920;19;19929;-69
2022/08/03 07:57:22;;;;;;;;;;;;;;;24.43;44.23;101046.59;7396120;19;19922;-69
2022/08/03 07:59:50;;;;;;;;;;;;;;;24.54;44.34;101046.63;7395311;19;19926;-69
2022/08/03 08:02:18;;;;;;;;;;;;;;;24.66;43.90;101052.06;7396147;19;20314;-69
2022/08/03 08:04:47;;;;;;;;;;;;;;;24.77;43.51;101049.41;7396601;19;19929;-68
2022/08/03 08:07:17;;;;;;;;;;;;;;;24.86;42.81;101050.53;7395255;19;19937;-69
2022/08/03 08:09:46;;;;;;;;;;;;;;;24.96;43.03;101047.97;7396486;19;19936;-68
2022/08/03 08:12:14;;;;;;;;;;;;;;;25.04;43.08;101046.38;7395349;19;19986;-68
2022/08/03 08:14:44;;;;;;;;;;;;;;;25.14;42.28;101048.38;7396536;19;19922;-68
2022/08/03 08:17:19;;;;;;;;;;;;;;;25.25;41.78;101050.19;7395029;19;19930;-69
2022/08/03 08:19:47;;;;;;;;;;;;;;;25.34;41.74;101041.44;7393224;19;20017;-68
2022/08/03 08:22:18;;;;;;;;;;;;;;;25.44;41.76;101041.56;7394588;19;19923;-68
2022/08/03 08:24:47;;;;;;;;;;;;;;;25.52;41.42;101037.28;7396624;19;19926;-68
2022/08/03 08:27:16;;;;;;;;;;;;;;;25.61;41.49;101035.69;7393893;19;19937;-68
2022/08/03 08:29:44;;;;;;;;;;;;;;;25.70;39.85;101042.13;7394075;19;19990;-68
2022/08/03 08:32:14;;;;;;;;;;;;;;;25.78;40.76;101045.06;7393677;19;19923;-68
2022/08/03 08:34:43;;;;;;;;;;;;;;;25.88;39.97;101034.41;7394947;19;19919;-68
2022/08/03 08:37:11;;;;;;;;;;;;;;;25.96;41.03;101045.38;7394211;19;19914;-68
2022/08/03 08:39:42;;;;;;;;;;;;;;;26.02;38.69;101047.56;7395313;19;19943;-68
2022/08/03 08:42:11;;;;;;;;;;;;;;;26.11;39.45;101042.41;7393720;19;19982;-68
2022/08/03 08:44:39;;;;;;;;;;;;;;;26.17;37.68;101040.09;7394517;19;20281;-68
2022/08/03 08:47:09;;;;;;;;;;;;;;;26.26;38.26;101038.47;7393368;19;20473;-69
2022/08/03 08:49:39;;;;;;;;;;;;;;;26.33;39.70;101039.66;7395283;19;20362;-68
2022/08/03 08:52:09;;;;;;;;;;;;;;;26.42;39.68;101034.50;7394099;19;19959;-68
2022/08/03 08:54:39;;;;;;;;;;;;;;;26.50;39.01;101035.53;7395109;19;20356;-70
2022/08/03 08:57:10;;;;;;;;;;;;;;;26.58;38.24;101036.75;7394173;19;19919;-67
2022/08/03 08:59:39;;;;;;;;;;;;;;;26.66;33.88;101039.63;7393034;19;19983;-68
2022/08/03 09:02:07;;;;;;;;;;;;;;;26.74;35.95;101037.16;7392849;19;20338;-68
2022/08/03 09:04:35;;;;;;;;;;;;;;;26.80;36.60;101039.31;7394956;19;19922;-68
2022/08/03 09:07:04;;;;;;;;;;;;;;;26.86;37.65;101035.25;7393811;19;19919;-68
2022/08/03 09:09:32;;;;;;;;;;;;;;;26.91;35.66;101024.94;7392598;19;19942;-69
2022/08/03 09:12:00;;;;;;;;;;;;;;;26.98;36.02;101022.53;7392860;19;19943;-69
2022/08/03 09:14:31;;;;;;;;;;;;;;;27.07;35.72;101032.53;7392713;19;19939;-69
2022/08/03 09:17:02;;;;;;;;;;;;;;;27.14;36.24;101039.06;7393517;19;19930;-69
2022/08/03 09:19:31;;;;;;;;;;;;;;;27.21;35.27;101039.41;7394740;19;19923;-69
2022/08/03 09:22:12;;;;;;;;;;;;;;;27.27;36.86;101027.22;7393899;19;20246;-69
2022/08/03 09:24:55;;;;;;;;;;;;;;;27.33;37.35;101023.97;7393952;19;19978;-68
2022/08/03 09:27:23;;;;;;;;;;;;;;;27.40;33.30;101027.88;7391310;19;19970;-69
2022/08/03 09:29:54;;;;;;;;;;;;;;;27.47;35.55;101031.72;7391943;19;19922;-68
2022/08/03 09:32:23;;;;;;;;;;;;;;;27.53;34.81;101030.31;7396706;19;20247;-69
2022/08/03 09:34:52;;;;;;;;;;;;;;;27.59;35.89;101026.25;7400739;19;20384;-68
2022/08/03 09:37:24;;;;;;;;;;;;;;;27.65;33.78;101020.25;7398301;19;19918;-68
2022/08/03 09:39:52;;;;;;;;;;;;;;;27.71;34.75;101013.50;7402574;19;19923;-69
2022/08/03 09:42:22;;;;;;;;;;;;;;;27.78;32.72;101020.03;7401090;19;19925;-68
2022/08/03 09:44:51;;;;;;;;;;;;;;;27.84;33.85;101018.59;7400577;19;19938;-69
2022/08/03 09:47:29;;;;;;;;;;;;;;;27.88;35.26;101023.59;7398710;19;20408;-69
2022/08/03 09:50:01;;;;;;;;;;;;;;;27.94;34.42;101014.94;7401306;19;20265;-69
2022/08/03 09:52:33;;;;;;;;;;;;;;;28.02;35.80;101010.66;7398395;19;20035;-69
2022/08/03 09:55:02;;;;;;;;;;;;;;;28.08;34.62;101020.94;7400302;19;20275;-68
2022/08/03 09:57:32;;;;;;;;;;;;;;;28.15;33.46;101011.28;7397853;19;19929;-69
2022/08/03 10:00:12;;;;;;;;;;;;;;;28.22;34.11;101017.81;7397747;19;19942;-69
2022/08/03 10:02:43;;;;;;;;;;;;;;;28.30;34.34;101006.31;7400814;19;20265;-69
2022/08/03 10:05:12;;;;;;;;;;;;;;;28.38;33.04;101011.00;7398654;19;19927;-69
2022/08/03 10:07:47;;;;;;;;;;;;;;;28.44;33.07;101005.88;7398268;19;19922;-67
2022/08/03 10:10:16;;;;;;;;;;;;;;;28.50;32.64;101004.44;7400074;19;19938;-68
2022/08/03 10:12:44;;;;;;;;;;;;;;;28.59;34.77;101002.72;7397322;19;20365;-68
2022/08/03 10:15:12;;;;;;;;;;;;;;;28.66;32.22;101003.00;7400437;19;19947;-68
2022/08/03 10:17:43;;;;;;;;;;;;;;;28.73;32.85;101004.16;7397237;19;20341;-68
2022/08/03 10:20:12;;;;;;;;;;;;;;;28.79;31.53;100995.47;7397643;19;19922;-68
2022/08/03 10:22:42;;;;;;;;;;;;;;;28.86;33.78;100998.44;7400439;19;19933;-68
2022/08/03 10:25:12;;;;;;;;;;;;;;;28.92;32.71;100998.69;7399513;19;19978;-68
2022/08/03 10:27:41;;;;;;;;;;;;;;;28.98;32.97;100997.25;7397709;19;19924;-68
2022/08/03 10:30:10;;;;;;;;;;;;;;;29.06;31.93;101000.03;7397533;19;19918;-69
2022/08/03 10:32:42;;;;;;;;;;;;;;;29.14;31.55;100984.97;7397270;19;19911;-69
2022/08/03 10:35:13;;;;;;;;;;;;;;;29.22;33.12;100993.19;7399620;19;20304;-68
2022/08/03 10:37:44;;;;;;;;;;;;;;;29.30;32.66;100984.34;7397515;19;19923;-68
2022/08/03 10:40:15;;;;;;;;;;;;;;;29.35;30.62;100984.75;7399528;19;19918;-69
2022/08/03 10:42:45;;;;;;;;;;;;;;;29.41;31.33;100978.75;7397210;19;19918;-69
2022/08/03 10:45:16;;;;;;;;;;;;;;;29.46;32.08;100978.28;7397397;19;19922;-68
2022/08/03 10:47:44;;;;;;;;;;;;;;;29.51;29.70;100965.16;7397360;19;19926;-68
2022/08/03 10:50:15;;;;;;;;;;;;;;;29.60;30.28;100964.25;7399286;19;19927;-67
2022/08/03 10:52:55;;;;;;;;;;;;;;;29.73;31.02;100963.88;7397512;19;19935;-68
2022/08/03 10:58:14;;;;;;;;;;;;;;;29.93;32.28;100964.59;7399216;19;19922;-68
2022/08/03 11:00:50;;;;;;;;;;;;;;;29.98;31.71;100972.25;7397178;19;19937;-67
2022/08/03 11:03:18;;;;;;;;;;;;;;;30.06;32.46;100965.06;7398264;19;19922;-67
2022/08/03 11:05:53;;;;;;;;;;;;;;;30.13;32.04;100962.59;7398520;19;19915;-68
2022/08/03 11:08:22;;;;;;;;;;;;;;;30.22;32.28;100955.38;7397844;19;19933;-67
2022/08/03 11:10:51;;;;;;;;;;;;;;;30.30;31.10;100952.72;7396075;19;19919;-68
2022/08/03 11:13:20;;;;;;;;;;;;;;;30.37;29.73;100950.25;7395531;19;20248;-68
2022/08/03 11:15:49;;;;;;;;;;;;;;;30.42;29.74;100947.03;7395612;19;19923;-69
2022/08/03 11:18:17;;;;;;;;;;;;;;;30.46;30.50;100951.16;7397530;19;20359;-68
2022/08/03 11:20:49;;;;;;;;;;;;;;;30.51;31.38;100948.84;7397239;19;20281;-68
2022/08/03 11:23:18;;;;;;;;;;;;;;;30.58;30.98;100946.34;7397158;19;19919;-68
2022/08/03 11:26:01;;;;;;;;;;;;;;;30.64;31.25;100954.66;7395400;19;19915;-68
2022/08/03 11:28:30;;;;;;;;;;;;;;;30.75;31.63;100958.97;7397498;19;19932;-69
2022/08/03 11:30:58;;;;;;;;;;;;;;;30.83;30.15;100958.16;7395613;19;19926;-68
2022/08/03 11:33:32;;;;;;;;;;;;;;;30.88;31.13;100953.94;7395330;19;19921;-68
2022/08/03 11:36:03;;;;;;;;;;;;;;;30.93;29.74;100949.94;7397321;19;20002;-68
2022/08/03 11:38:32;;;;;;;;;;;;;;;31.00;30.25;100949.09;7397726;19;20280;-68
2022/08/03 11:41:01;;;;;;;;;;;;;;;31.08;30.51;100953.75;7396691;19;20338;-67
2022/08/03 11:43:44;;;;;;;;;;;;;;;31.17;28.83;100954.63;7396707;19;19974;-68
2022/08/03 11:46:16;;;;;;;;;;;;;;;31.26;30.01;100941.94;7396358;19;20303;-67
2022/08/03 11:48:45;;;;;;;;;;;;;;;31.35;30.65;100947.25;7394833;19;19919;-69
2022/08/03 11:51:23;;;;;;;;;;;;;;;31.49;29.80;100939.47;7396689;19;19937;-69
2022/08/03 11:53:55;;;;;;;;;;;;;;;31.65;30.06;100942.22;7394257;19;19922;-69
2022/08/03 11:56:23;;;;;;;;;;;;;;;31.83;29.22;100950.25;7396286;19;20330;-67
2022/08/03 11:58:52;;;;;;;;;;;;;;;31.99;29.86;100935.81;7394882;19;19918;-68
2022/08/03 12:01:20;;;;;;;;;;;;;;;32.20;28.80;100942.63;7396072;19;19941;-68
2022/08/03 12:03:49;;;;;;;;;;;;;;;32.41;29.75;100943.97;7396292;19;19929;-68
2022/08/03 12:06:17;;;;;;;;;;;;;;;32.64;29.20;100938.63;7395978;19;19938;-69
2022/08/03 12:08:48;;;;;;;;;;;;;;;32.90;28.34;100924.00;7396793;19;19929;-67
2022/08/03 12:11:17;;;;;;;;;;;;;;;33.16;29.01;100931.00;7396934;19;19918;-67
2022/08/03 12:13:46;;;;;;;;;;;;;;;33.41;27.91;100931.72;7394777;19;19919;-67
2022/08/03 12:16:19;;;;;;;;;;;;;;;33.66;26.93;100928.84;7395577;19;19923;-68
2022/08/03 12:18:47;;;;;;;;;;;;;;;33.84;26.68;100923.13;7396237;19;19919;-67
2022/08/03 12:21:17;;;;;;;;;;;;;;;33.97;26.29;100928.81;7395709;19;20331;-67
2022/08/03 12:23:45;;;;;;;;;;;;;;;34.10;27.61;100922.75;7395770;19;19927;-66
2022/08/03 12:26:16;;;;;;;;;;;;;;;34.19;25.71;100927.06;7393745;19;19914;-66
2022/08/03 12:28:48;;;;;;;;;;;;;;;34.33;27.19;100925.41;7394083;19;19922;-67
2022/08/03 12:31:17;;;;;;;;;;;;;;;34.50;27.94;100926.13;7396032;19;19939;-67
2022/08/03 12:33:58;;;;;;;;;;;;;;;34.66;27.12;100922.34;7394111;19;19919;-67
2022/08/03 12:36:26;;;;;;;;;;;;;;;34.78;27.56;100909.09;7393764;19;19946;-67
2022/08/03 12:38:58;;;;;;;;;;;;;;;34.88;25.30;100906.09;7393697;19;19986;-67
2022/08/03 12:41:34;;;;;;;;;;;;;;;35.00;26.16;100906.47;7395951;19;19914;-66
2022/08/03 12:44:02;;;;;;;;;;;;;;;35.13;25.76;100903.88;7394006;19;19925;-69
2022/08/03 12:46:34;;;;;;;;;;;;;;;35.23;25.17;100896.25;7393943;19;19926;-67
2022/08/03 12:49:04;;;;;;;;;;;;;;;35.30;24.49;100904.50;7395013;19;19915;-67
2022/08/03 12:51:33;;;;;;;;;;;;;;;35.35;27.36;100898.47;7393320;19;19975;-67
2022/08/03 12:54:02;;;;;;;;;;;;;;;35.44;25.91;100893.75;7392475;19;19942;-67
2022/08/03 12:56:32;;;;;;;;;;;;;;;35.58;24.66;100895.59;7392732;19;19926;-67
2022/08/03 12:59:01;;;;;;;;;;;;;;;35.69;25.75;100899.66;7395409;19;19936;-68
2022/08/03 13:01:37;;;;;;;;;;;;;;;35.76;25.37;100894.28;7393262;19;19928;-67
2022/08/03 13:04:10;;;;;;;;;;;;;;;35.83;25.27;100904.22;7393362;19;19982;-67